sensor_id;sensor_type;location;lat;lon;timestamp;pressure;altitude;pressure_sealevel;temperature;humidity
73105;BME280;61296;50.526;30.792;2024-01-30T00:12:37;101884.34;;;-2.24;92.14
73105;BME280;61296;50.526;30.792;2024-01-30T00:28:10;101858.56;;;-2.32;92.15
73105;BME280;61296;50.526;30.792;2024-01-30T00:43:43;101802.19;;;-2.45;91.91
73105;BME280;61296;50.526;30.792;2024-01-30T00:59:16;101808.78;;;-2.29;90.92
73105;BME280;61296;50.526;30.792;2024-01-30T01:14:49;101763.88;;;-2.35;90.07
73105;BME280;61296;50.526;30.792;2024-01-30T01:30:22;101772.44;;;-2.26;90.46
73105;BME280;61296;50.526;30.792;2024-01-30T01:45:55;101728.75;;;-2.52;91.56
73105;BME280;61296;50.526;30.792;2024-01-30T02:01:28;101704.63;;;-2.70;92.97
73105;BME280;61296;50.526;30.792;2024-01-30T02:17:02;101707.91;;;-2.68;93.19
73105;BME280;61296;50.526;30.792;2024-01-30T02:32:34;101706.63;;;-2.66;93.12
73105;BME280;61296;50.526;30.792;2024-01-30T02:48:08;101712.25;;;-2.67;91.98
73105;BME280;61296;50.526;30.792;2024-01-30T03:03:41;101739.50;;;-2.75;92.39
73105;BME280;61296;50.526;30.792;2024-01-30T03:19:15;101694.41;;;-3.03;92.60
73105;BME280;61296;50.526;30.792;2024-01-30T03:34:48;101684.59;;;-3.09;92.71
73105;BME280;61296;50.526;30.792;2024-01-30T03:50:21;101700.28;;;-2.95;92.78
73105;BME280;61296;50.526;30.792;2024-01-30T04:05:54;101674.13;;;-3.29;93.21
73105;BME280;61296;50.526;30.792;2024-01-30T04:21:27;101694.94;;;-3.25;93.97
73105;BME280;61296;50.526;30.792;2024-01-30T04:37:01;101672.91;;;-3.45;95.67
73105;BME280;61296;50.526;30.792;2024-01-30T04:52:35;101660.25;;;-3.56;96.82
73105;BME280;61296;50.526;30.792;2024-01-30T05:08:08;101601.94;;;-3.86;97.40
73105;BME280;61296;50.526;30.792;2024-01-30T05:23:41;101660.63;;;-3.53;98.07
73105;BME280;61296;50.526;30.792;2024-01-30T05:39:14;101619.09;;;-3.98;99.31
73105;BME280;61296;50.526;30.792;2024-01-30T05:54:47;101657.84;;;-3.76;100.00
73105;BME280;61296;50.526;30.792;2024-01-30T06:10:20;101660.50;;;-3.46;100.00
73105;BME280;61296;50.526;30.792;2024-01-30T06:25:53;101670.22;;;-2.92;99.27
73105;BME280;61296;50.526;30.792;2024-01-30T06:41:26;101629.31;;;-2.65;96.53
73105;BME280;61296;50.526;30.792;2024-01-30T06:56:59;101682.00;;;-2.34;96.37
73105;BME280;61296;50.526;30.792;2024-01-30T07:12:32;101632.13;;;-2.20;94.98
73105;BME280;61296;50.526;30.792;2024-01-30T07:28:05;101641.13;;;-1.74;93.66
73105;BME280;61296;50.526;30.792;2024-01-30T07:43:38;101643.28;;;-1.26;90.99
73105;BME280;61296;50.526;30.792;2024-01-30T07:59:12;101575.63;;;-1.36;88.08
73105;BME280;61296;50.526;30.792;2024-01-30T08:14:44;101625.91;;;-0.19;84.29
73105;BME280;61296;50.526;30.792;2024-01-30T08:30:17;101561.22;;;-0.69;83.10
73105;BME280;61296;50.526;30.792;2024-01-30T09:02:52;101535.81;;;-0.46;82.68
73105;BME280;61296;50.526;30.792;2024-01-30T09:18:25;101549.00;;;-0.01;81.85
73105;BME280;61296;50.526;30.792;2024-01-30T09:33:58;101549.75;;;0.53;80.76
73105;BME280;61296;50.526;30.792;2024-01-30T09:49:32;101539.38;;;0.77;79.62
73105;BME280;61296;50.526;30.792;2024-01-30T10:05:07;101510.50;;;1.03;78.57
73105;BME280;61296;50.526;30.792;2024-01-30T10:20:40;101499.56;;;1.45;75.67
73105;BME280;61296;50.526;30.792;2024-01-30T10:36:14;101498.06;;;1.80;75.24
73105;BME280;61296;50.526;30.792;2024-01-30T10:51:49;101472.56;;;2.01;73.39
73105;BME280;61296;50.526;30.792;2024-01-30T11:07:25;101469.84;;;2.42;71.63
73105;BME280;61296;50.526;30.792;2024-01-30T11:23:00;101452.41;;;2.58;69.96
73105;BME280;61296;50.526;30.792;2024-01-30T11:38:38;101426.59;;;2.66;69.50
73105;BME280;61296;50.526;30.792;2024-01-30T11:54:12;101391.06;;;2.47;68.53
73105;BME280;61296;50.526;30.792;2024-01-30T12:09:55;101427.59;;;2.90;69.14
73105;BME280;61296;50.526;30.792;2024-01-30T12:25:29;101412.34;;;3.00;68.23
73105;BME280;61296;50.526;30.792;2024-01-30T12:41:04;101418.06;;;3.03;68.02
73105;BME280;61296;50.526;30.792;2024-01-30T12:56:37;101396.84;;;3.00;68.06
73105;BME280;61296;50.526;30.792;2024-01-30T13:12:09;101365.66;;;2.87;68.39
73105;BME280;61296;50.526;30.792;2024-01-30T13:27:43;101362.59;;;3.04;68.47
73105;BME280;61296;50.526;30.792;2024-01-30T13:43:17;101369.09;;;3.08;69.05
73105;BME280;61296;50.526;30.792;2024-01-30T13:58:52;101371.19;;;2.72;71.44
73105;BME280;61296;50.526;30.792;2024-01-30T14:14:28;101351.44;;;2.46;73.05
73105;BME280;61296;50.526;30.792;2024-01-30T14:30:01;101357.97;;;2.35;74.28
73105;BME280;61296;50.526;30.792;2024-01-30T14:45:33;101363.16;;;2.31;74.43
73105;BME280;61296;50.526;30.792;2024-01-30T15:01:08;101325.81;;;1.78;75.30
73105;BME280;61296;50.526;30.792;2024-01-30T15:16:41;101360.25;;;1.57;77.33
73105;BME280;61296;50.526;30.792;2024-01-30T15:32:19;101328.78;;;1.81;100.00
73105;BME280;61296;50.526;30.792;2024-01-30T15:47:53;101352.28;;;2.26;100.00
73105;BME280;61296;50.526;30.792;2024-01-30T16:03:29;101353.13;;;2.17;96.99
73105;BME280;61296;50.526;30.792;2024-01-30T16:18:48;101301.53;;;2.32;100.00
73105;BME280;61296;50.526;30.792;2024-01-30T16:34:21;101339.03;;;2.10;99.13
73105;BME280;61296;50.526;30.792;2024-01-30T16:49:55;101334.47;;;1.49;84.65
73105;BME280;61296;50.526;30.792;2024-01-30T17:05:27;101340.00;;;0.71;86.04
73105;BME280;61296;50.526;30.792;2024-01-30T17:20:59;101324.38;;;0.26;88.33
73105;BME280;61296;50.526;30.792;2024-01-30T17:36:35;101308.03;;;0.06;90.07
73105;BME280;61296;50.526;30.792;2024-01-30T17:52:08;101312.63;;;0.00;90.52
73105;BME280;61296;50.526;30.792;2024-01-30T18:07:42;101297.75;;;0.03;90.65
73105;BME280;61296;50.526;30.792;2024-01-30T18:23:17;101279.59;;;-0.02;90.10
73105;BME280;61296;50.526;30.792;2024-01-30T18:38:55;101240.88;;;-0.55;90.59
73105;BME280;61296;50.526;30.792;2024-01-30T18:54:28;101296.25;;;-0.20;90.81
73105;BME280;61296;50.526;30.792;2024-01-30T19:10:00;101279.78;;;-0.14;90.33
73105;BME280;61296;50.526;30.792;2024-01-30T19:25:33;101252.69;;;-0.29;89.82
73105;BME280;61296;50.526;30.792;2024-01-30T19:41:11;101278.97;;;-0.14;89.19
73105;BME280;61296;50.526;30.792;2024-01-30T19:56:44;101279.84;;;-0.09;88.54
73105;BME280;61296;50.526;30.792;2024-01-30T20:12:18;101250.84;;;-0.18;88.29
73105;BME280;61296;50.526;30.792;2024-01-30T20:27:52;101231.06;;;-0.24;87.98
73105;BME280;61296;50.526;30.792;2024-01-30T20:43:26;101224.03;;;-0.25;87.58
73105;BME280;61296;50.526;30.792;2024-01-30T20:58:59;101230.78;;;-0.22;87.34
73105;BME280;61296;50.526;30.792;2024-01-30T21:14:33;101217.00;;;-0.21;86.09
73105;BME280;61296;50.526;30.792;2024-01-30T21:30:06;101224.94;;;-0.09;85.18
73105;BME280;61296;50.526;30.792;2024-01-30T21:45:39;101183.47;;;-0.25;84.63
73105;BME280;61296;50.526;30.792;2024-01-30T22:01:14;101200.94;;;0.10;83.29
73105;BME280;61296;50.526;30.792;2024-01-30T22:16:46;101179.84;;;0.12;81.95
73105;BME280;61296;50.526;30.792;2024-01-30T22:32:19;101185.03;;;0.23;81.87
73105;BME280;61296;50.526;30.792;2024-01-30T22:47:52;101178.00;;;0.22;81.89
73105;BME280;61296;50.526;30.792;2024-01-30T23:03:25;101174.94;;;0.09;81.39
73105;BME280;61296;50.526;30.792;2024-01-30T23:18:58;101083.69;;;-0.32;81.53
73105;BME280;61296;50.526;30.792;2024-01-30T23:34:31;101144.94;;;0.05;81.98
73105;BME280;61296;50.526;30.792;2024-01-30T23:50:05;101124.09;;;0.01;82.38
